createdAt,value
2023-11-24T00:00:47.325Z,100092.00
2023-11-24T00:03:16.296Z,100092.06
2023-11-24T00:05:47.355Z,100090.88
2023-11-24T00:08:15.651Z,100090.88
2023-11-24T00:10:45.050Z,100079.91
2023-11-24T00:13:13.307Z,100079.34
2023-11-24T00:15:43.941Z,100070.78
2023-11-24T00:18:13.180Z,100061.22
2023-11-24T00:20:41.462Z,100061.88
2023-11-24T00:23:11.126Z,100054.22
2023-11-24T00:25:39.419Z,100047.50
2023-11-24T00:28:07.742Z,100043.97
2023-11-24T00:30:36.252Z,100052.63
2023-11-24T00:33:04.610Z,100010.63
2023-11-24T00:35:34.043Z,100028.41
2023-11-24T00:38:02.292Z,100035.03
2023-11-24T00:40:31.971Z,100012.84
2023-11-24T00:43:01.772Z,100027.28
2023-11-24T00:45:30.156Z,100014.72
2023-11-24T00:47:58.405Z,99993.31
2023-11-24T00:50:26.809Z,100026.53
2023-11-24T00:52:55.124Z,100010.50
2023-11-24T00:55:24.289Z,99995.22
2023-11-24T00:57:54.133Z,100000.19
2023-11-24T01:00:24.252Z,99975.56
2023-11-24T01:02:52.595Z,99984.69
2023-11-24T01:05:21.728Z,99977.59
2023-11-24T01:07:50.190Z,99979.53
2023-11-24T01:10:18.641Z,99983.47
2023-11-24T01:12:49.964Z,99984.72
2023-11-24T01:15:20.054Z,99974.44
2023-11-24T01:17:48.558Z,99970.78
2023-11-24T01:20:17.553Z,99978.19
2023-11-24T01:22:46.804Z,99983.16
2023-11-24T01:25:15.150Z,99997.38
2023-11-24T01:27:43.475Z,99986.06
2023-11-24T01:30:12.846Z,99987.53
2023-11-24T01:32:42.472Z,99995.38
2023-11-24T01:35:11.631Z,99988.53
2023-11-24T01:37:41.238Z,99990.06
2023-11-24T01:40:11.311Z,99890.19
2023-11-24T01:42:39.839Z,99929.72
2023-11-24T01:45:10.353Z,99981.44
2023-11-24T01:47:39.329Z,99963.91
2023-11-24T01:50:10.293Z,99978.13
2023-11-24T01:52:38.586Z,99973.81
2023-11-24T01:55:07.910Z,99972.41
2023-11-24T01:57:37.447Z,99980.00
2023-11-24T02:00:07.018Z,99970.13
2023-11-24T02:02:36.300Z,99966.34
2023-11-24T02:05:04.788Z,99918.53
2023-11-24T02:07:34.432Z,99973.38
2023-11-24T02:10:03.069Z,99970.50
2023-11-24T02:12:31.353Z,99964.16
2023-11-24T02:14:59.629Z,99962.44
2023-11-24T02:17:27.869Z,99951.28
2023-11-24T02:19:58.266Z,99957.94
2023-11-24T02:22:26.630Z,99960.81
2023-11-24T02:24:56.326Z,99949.66
2023-11-24T02:27:25.703Z,99960.34
2023-11-24T02:29:54.447Z,99955.66
2023-11-24T02:32:22.694Z,99949.72
2023-11-24T02:34:50.924Z,99935.91
2023-11-24T02:37:19.238Z,99943.69
2023-11-24T02:39:48.880Z,99930.72
2023-11-24T02:42:18.700Z,99944.97
2023-11-24T02:44:47.003Z,99933.56
2023-11-24T02:47:15.252Z,99946.13
2023-11-24T02:49:43.648Z,99929.84
2023-11-24T02:52:11.843Z,99872.47
2023-11-24T02:54:40.126Z,99918.34
2023-11-24T02:57:08.629Z,99908.44
2023-11-24T02:59:38.257Z,99909.41
2023-11-24T03:02:07.166Z,99885.50
2023-11-24T03:04:35.470Z,99873.16
2023-11-24T03:07:05.335Z,99846.34
2023-11-24T03:09:33.754Z,99841.66
2023-11-24T03:12:03.421Z,99834.66
2023-11-24T03:14:32.029Z,99844.50
2023-11-24T03:17:02.486Z,99849.97
2023-11-24T03:19:30.852Z,99829.44
2023-11-24T03:21:59.126Z,99849.78
2023-11-24T03:24:27.532Z,99842.16
2023-11-24T03:26:55.797Z,99837.28
2023-11-24T03:29:24.342Z,99835.81
2023-11-24T03:31:52.629Z,99843.19
2023-11-24T03:34:22.414Z,99854.72
2023-11-24T03:36:50.878Z,99838.91
2023-11-24T03:39:22.212Z,99816.09
2023-11-24T03:41:50.477Z,99818.97
2023-11-24T03:44:18.898Z,99825.34
2023-11-24T03:46:47.247Z,99821.63
2023-11-24T03:49:15.571Z,99837.28
2023-11-24T03:51:45.222Z,99845.47
2023-11-24T03:54:13.813Z,99830.53
2023-11-24T03:56:42.135Z,99845.34
2023-11-24T03:59:10.521Z,99747.28
2023-11-24T04:01:38.921Z,99819.44
2023-11-24T04:04:07.977Z,99827.72
2023-11-24T04:06:36.366Z,99818.88
2023-11-24T04:09:06.776Z,99807.78
2023-11-24T04:11:35.081Z,99811.31
2023-11-24T04:14:03.545Z,99794.69
2023-11-24T04:16:32.015Z,99797.56
2023-11-24T04:19:00.345Z,99788.28
2023-11-24T04:21:28.664Z,99789.97
2023-11-24T04:23:57.476Z,99782.97
2023-11-24T04:26:27.163Z,99783.44
2023-11-24T04:28:58.346Z,99774.38
2023-11-24T04:31:26.605Z,99791.69
2023-11-24T04:33:54.843Z,99768.00
2023-11-24T04:36:23.385Z,99771.16
2023-11-24T04:38:51.690Z,99751.22
2023-11-24T04:41:19.876Z,99740.53
2023-11-24T04:43:49.412Z,99740.94
2023-11-24T04:46:17.671Z,99733.75
2023-11-24T04:48:46.241Z,99740.97
2023-11-24T04:51:14.519Z,99762.38
2023-11-24T04:53:42.792Z,99771.25
2023-11-24T04:56:11.458Z,99780.91
2023-11-24T04:58:39.755Z,99790.97
2023-11-24T05:01:09.620Z,99803.00
2023-11-24T05:03:37.968Z,99805.00
2023-11-24T05:06:06.900Z,99814.78
2023-11-24T05:08:35.086Z,99814.69
2023-11-24T05:11:03.305Z,99830.72
2023-11-24T05:13:31.539Z,99817.94
2023-11-24T05:16:00.421Z,99806.16
2023-11-24T05:18:30.060Z,99814.56
2023-11-24T05:20:58.330Z,99783.22
2023-11-24T05:23:26.556Z,99807.13
2023-11-24T05:25:55.010Z,99793.91
2023-11-24T05:28:23.825Z,99799.63
2023-11-24T05:30:52.504Z,99815.06
2023-11-24T05:33:20.861Z,99817.75
2023-11-24T05:35:50.440Z,99813.69
2023-11-24T05:38:18.674Z,99803.31
2023-11-24T05:40:47.393Z,99797.16
2023-11-24T05:43:15.661Z,99790.56
2023-11-24T05:45:44.206Z,99789.53
2023-11-24T05:48:12.559Z,99774.09
2023-11-24T05:50:40.778Z,99766.53
2023-11-24T05:53:10.340Z,99767.88
2023-11-24T05:55:38.598Z,99753.06
2023-11-24T05:58:07.271Z,99749.63
2023-11-24T06:00:35.710Z,99739.81
2023-11-24T06:03:03.962Z,99741.66
2023-11-24T06:05:32.293Z,99730.78
2023-11-24T06:08:03.100Z,99741.13
2023-11-24T06:10:33.187Z,99732.31
2023-11-24T06:13:01.798Z,99740.56
2023-11-24T06:15:30.208Z,99723.03
2023-11-24T06:17:58.486Z,99726.75
2023-11-24T06:20:26.749Z,99724.72
2023-11-24T06:22:55.709Z,99723.69
2023-11-24T06:25:23.917Z,99725.38
2023-11-24T06:27:53.586Z,99736.31
2023-11-24T06:30:21.988Z,99730.81
2023-11-24T06:32:50.275Z,99748.69
2023-11-24T06:35:18.509Z,99739.00
2023-11-24T06:37:46.754Z,99721.59
2023-11-24T06:40:15.509Z,99719.66
2023-11-24T06:42:43.963Z,99719.91
2023-11-24T06:45:14.813Z,99731.19
2023-11-24T06:47:43.526Z,99739.59
2023-11-24T06:50:13.486Z,99737.50
2023-11-24T06:52:42.114Z,99721.69
2023-11-24T06:55:11.801Z,99720.44
2023-11-24T06:57:40.777Z,99732.63
2023-11-24T07:00:10.208Z,99731.41
2023-11-24T07:02:40.198Z,99731.00
2023-11-24T07:05:10.182Z,99717.81
2023-11-24T07:07:38.967Z,99720.91
2023-11-24T07:10:08.644Z,99731.38
2023-11-24T07:12:36.978Z,99730.94
2023-11-24T07:15:06.232Z,99726.22
2023-11-24T07:17:34.787Z,99716.38
2023-11-24T07:20:05.215Z,99709.81
2023-11-24T07:22:34.504Z,99715.38
2023-11-24T07:25:02.813Z,99711.09
2023-11-24T07:27:32.412Z,99708.31
2023-11-24T07:30:00.769Z,99718.47
2023-11-24T07:32:30.615Z,99722.19
2023-11-24T07:34:58.903Z,99693.28
2023-11-24T07:37:28.850Z,99725.63
2023-11-24T07:39:57.161Z,99727.72
2023-11-24T07:42:25.462Z,99748.44
2023-11-24T07:44:53.727Z,99745.00
2023-11-24T07:47:21.927Z,99735.09
2023-11-24T07:49:50.160Z,99726.28
2023-11-24T07:52:18.402Z,99728.97
2023-11-24T07:54:48.030Z,99733.66
2023-11-24T07:57:16.287Z,99731.84
2023-11-24T07:59:44.754Z,99732.28
2023-11-24T08:02:13.075Z,99708.78
2023-11-24T08:04:41.631Z,99729.59
2023-11-24T08:07:10.535Z,99728.53
2023-11-24T08:09:38.936Z,99719.72
2023-11-24T08:12:12.337Z,99720.19
2023-11-24T08:14:42.405Z,99719.81
2023-11-24T08:17:10.855Z,99723.91
2023-11-24T08:19:39.096Z,99720.59
2023-11-24T08:22:07.403Z,99716.09
2023-11-24T08:24:35.896Z,99721.03
2023-11-24T08:27:05.775Z,99721.63
2023-11-24T08:29:35.452Z,99714.66
2023-11-24T08:32:03.717Z,99713.63
2023-11-24T08:34:32.171Z,99696.88
2023-11-24T08:37:03.306Z,99713.41
2023-11-24T08:39:31.763Z,99717.97
2023-11-24T08:42:00.043Z,99718.75
2023-11-24T08:44:28.676Z,99718.75
2023-11-24T08:46:58.360Z,99702.22
2023-11-24T08:49:26.660Z,99698.56
2023-11-24T08:51:55.109Z,99702.56
2023-11-24T08:54:23.843Z,99537.63
2023-11-24T08:56:52.207Z,99692.34
2023-11-24T08:59:20.500Z,99690.41
2023-11-24T09:01:50.584Z,99699.47
2023-11-24T09:04:21.673Z,99681.78
2023-11-24T09:06:51.496Z,99674.59
2023-11-24T09:09:19.963Z,99676.03
2023-11-24T09:11:49.086Z,99675.47
2023-11-24T09:14:17.431Z,99673.81
2023-11-24T09:16:45.730Z,99670.13
2023-11-24T09:19:14.437Z,99672.63
2023-11-24T09:21:44.099Z,99669.50
2023-11-24T09:24:16.050Z,99657.78
2023-11-24T09:26:45.230Z,99661.91
2023-11-24T09:29:13.982Z,99656.56
2023-11-24T09:31:42.669Z,99656.78
2023-11-24T09:34:11.169Z,99647.31
2023-11-24T09:36:42.811Z,99653.69
2023-11-24T09:39:18.233Z,99657.16
2023-11-24T09:41:49.565Z,99648.78
2023-11-24T09:44:17.913Z,99636.47
2023-11-24T09:46:51.658Z,99605.56
2023-11-24T09:49:22.312Z,99587.69
2023-11-24T09:51:50.637Z,99633.19
2023-11-24T09:54:20.264Z,99611.56
2023-11-24T09:56:48.547Z,99615.88
2023-11-24T09:59:16.793Z,99558.72
2023-11-24T10:01:45.086Z,99602.13
2023-11-24T10:04:14.062Z,99594.50
2023-11-24T10:06:44.876Z,99599.47
2023-11-24T10:09:15.811Z,99574.34
2023-11-24T10:11:45.467Z,99570.22
2023-11-24T10:14:13.879Z,99531.59
2023-11-24T10:16:42.907Z,99555.22
2023-11-24T10:19:18.476Z,99554.81
2023-11-24T10:21:49.430Z,99541.44
2023-11-24T10:24:17.905Z,99547.81
2023-11-24T10:26:47.483Z,99539.31
2023-11-24T10:29:16.482Z,99537.47
2023-11-24T10:31:46.013Z,99548.16
2023-11-24T10:34:14.437Z,99529.84
2023-11-24T10:36:43.648Z,99513.00
2023-11-24T10:39:13.372Z,99517.13
2023-11-24T10:41:43.895Z,99511.38
2023-11-24T10:44:14.319Z,99509.69
2023-11-24T10:46:46.445Z,99513.63
2023-11-24T10:49:19.537Z,99481.16
2023-11-24T10:51:54.468Z,99510.78
2023-11-24T10:54:26.882Z,99510.56
2023-11-24T10:56:58.824Z,99494.75
2023-11-24T10:59:30.152Z,99499.47
2023-11-24T11:01:59.366Z,99499.28
2023-11-24T11:04:28.911Z,99491.88
2023-11-24T11:07:02.897Z,99501.13
2023-11-24T11:09:36.800Z,99495.19
2023-11-24T11:12:32.587Z,99496.63
2023-11-24T11:15:02.600Z,99491.91
2023-11-24T11:17:30.914Z,99488.19
2023-11-24T11:19:59.910Z,99484.09
2023-11-24T11:22:32.623Z,99478.09
2023-11-24T11:25:41.680Z,99469.06
2023-11-24T11:28:35.838Z,99484.28
2023-11-24T11:31:35.442Z,99482.84
2023-11-24T11:34:17.371Z,99470.91
2023-11-24T11:37:08.021Z,99395.88
2023-11-24T11:39:39.092Z,99448.53
2023-11-24T11:42:10.366Z,99449.13
2023-11-24T11:44:47.266Z,99459.63
2023-11-24T11:47:24.308Z,99468.06
2023-11-24T11:49:55.804Z,99454.69
2023-11-24T11:52:27.421Z,99443.38
2023-11-24T11:54:57.442Z,99451.00
2023-11-24T11:57:28.316Z,99440.91
2023-11-24T11:59:57.040Z,99436.97
2023-11-24T12:02:25.761Z,99390.75
2023-11-24T12:04:55.519Z,99441.69
2023-11-24T12:07:27.542Z,99421.56
2023-11-24T12:09:56.160Z,99448.69
2023-11-24T12:12:25.293Z,99442.09
2023-11-24T12:14:55.901Z,99434.66
2023-11-24T12:17:25.163Z,99340.44
2023-11-24T12:19:55.239Z,99436.44
2023-11-24T12:22:24.704Z,99435.81
2023-11-24T12:24:54.196Z,99434.13
2023-11-24T12:27:23.253Z,99427.56
2023-11-24T12:29:52.463Z,99424.44
2023-11-24T12:32:25.066Z,99418.28
2023-11-24T12:34:53.434Z,99430.97
2023-11-24T12:37:24.388Z,99200.00
2023-11-24T12:39:52.902Z,99419.66
2023-11-24T12:42:23.627Z,99411.31
2023-11-24T12:44:52.865Z,99401.03
2023-11-24T12:47:40.098Z,99410.66
2023-11-24T12:50:12.501Z,99400.00
2023-11-24T12:52:44.800Z,99403.06
2023-11-24T12:55:13.687Z,99406.72
2023-11-24T12:57:43.603Z,99385.19
2023-11-24T13:00:15.430Z,99375.72
2023-11-24T13:02:44.763Z,99375.34
2023-11-24T13:05:14.739Z,99286.13
2023-11-24T13:07:45.028Z,99367.94
2023-11-24T13:10:13.658Z,99363.28
2023-11-24T13:12:43.203Z,99358.94
2023-11-24T13:15:12.167Z,99363.28
2023-11-24T13:17:40.989Z,99351.19
2023-11-24T13:20:12.091Z,99357.97
2023-11-24T13:22:40.950Z,99357.38
2023-11-24T13:25:10.879Z,99353.50
2023-11-24T13:27:39.703Z,99345.47
2023-11-24T13:30:10.798Z,99329.50
2023-11-24T13:32:40.295Z,99332.41
2023-11-24T13:35:11.735Z,99326.03
2023-11-24T13:37:40.572Z,99314.75
2023-11-24T13:40:13.213Z,99326.25
2023-11-24T13:42:42.681Z,99328.72
2023-11-24T13:45:13.608Z,99327.09
2023-11-24T13:47:42.913Z,99328.72
2023-11-24T13:50:12.407Z,99332.41
2023-11-24T13:52:42.841Z,99328.31
2023-11-24T13:55:16.199Z,99265.09
2023-11-24T13:57:45.798Z,99329.97
2023-11-24T14:00:17.981Z,99316.41
2023-11-24T14:02:46.557Z,99311.28
2023-11-24T14:05:15.147Z,99322.34
2023-11-24T14:07:45.876Z,99316.19
2023-11-24T14:10:19.202Z,99305.50
2023-11-24T14:12:49.500Z,99307.75
2023-11-24T14:15:18.175Z,99308.63
2023-11-24T14:17:46.522Z,99311.06
2023-11-24T14:20:14.900Z,99317.66
2023-11-24T14:22:43.255Z,99329.53
2023-11-24T14:25:12.414Z,99348.03
2023-11-24T14:27:42.281Z,99343.72
2023-11-24T14:30:10.719Z,99355.22
2023-11-24T14:32:39.029Z,99372.00
2023-11-24T14:35:09.701Z,99382.81
2023-11-24T14:37:41.559Z,99328.09
2023-11-24T14:40:20.474Z,99388.66
2023-11-24T14:42:51.855Z,99448.72
2023-11-24T14:45:21.872Z,99448.06
2023-11-24T14:47:51.356Z,99435.31
2023-11-24T14:50:26.440Z,99450.63
2023-11-24T14:52:55.582Z,99453.53
2023-11-24T14:55:24.134Z,99447.28
2023-11-24T14:57:53.993Z,99444.63
2023-11-24T15:00:30.653Z,99437.91
2023-11-24T15:03:02.022Z,99424.84
2023-11-24T15:05:31.857Z,99409.63
2023-11-24T15:08:00.137Z,99419.00
2023-11-24T15:10:28.525Z,99437.41
2023-11-24T15:12:58.223Z,99435.06
2023-11-24T15:15:27.787Z,99424.34
2023-11-24T15:17:56.215Z,99414.19
2023-11-24T15:20:33.435Z,99425.34
2023-11-24T15:23:04.693Z,99414.53
2023-11-24T15:25:38.747Z,99414.38
2023-11-24T15:28:13.584Z,99417.66
2023-11-24T15:30:42.092Z,99421.63
2023-11-24T15:33:10.448Z,99434.91
2023-11-24T15:35:40.446Z,99425.38
2023-11-24T15:38:09.292Z,99432.31
2023-11-24T15:40:37.589Z,99440.78
2023-11-24T15:43:06.140Z,99437.47
2023-11-24T15:45:36.053Z,99424.53
2023-11-24T15:48:08.999Z,99432.69
2023-11-24T15:50:39.686Z,99425.75
2023-11-24T15:53:08.491Z,99418.03
2023-11-24T15:55:40.608Z,99436.44
2023-11-24T15:58:12.908Z,99451.38
2023-11-24T16:00:46.408Z,99440.66
2023-11-24T16:03:16.476Z,99452.84
2023-11-24T16:05:50.502Z,99411.78
2023-11-24T16:08:19.129Z,99447.25
2023-11-24T16:10:56.745Z,99445.97
2023-11-24T16:13:25.478Z,99447.53
2023-11-24T16:15:55.234Z,99460.63
2023-11-24T16:18:34.737Z,99452.84
2023-11-24T16:21:04.089Z,99454.00
2023-11-24T16:23:32.474Z,99458.50
2023-11-24T16:26:00.790Z,99457.00
2023-11-24T16:28:29.354Z,99462.84
2023-11-24T16:30:59.067Z,99458.47
2023-11-24T16:33:29.446Z,99450.09
2023-11-24T16:35:59.422Z,99470.78
2023-11-24T16:38:27.697Z,99463.75
2023-11-24T16:40:56.583Z,99463.94
2023-11-24T16:43:24.967Z,99467.38
2023-11-24T16:45:53.308Z,99480.88
2023-11-24T16:48:22.955Z,99485.44
2023-11-24T16:50:51.555Z,99492.81
2023-11-24T16:53:19.811Z,99482.19
2023-11-24T16:55:48.301Z,99488.88
2023-11-24T16:58:16.719Z,99492.84
2023-11-24T17:00:46.426Z,99501.16
2023-11-24T17:03:14.991Z,99491.75
2023-11-24T17:05:44.796Z,99503.81
2023-11-24T17:08:13.789Z,99507.22
2023-11-24T17:10:42.652Z,99510.22
2023-11-24T17:13:11.700Z,99489.53
2023-11-24T17:15:40.100Z,99470.88
2023-11-24T17:18:11.364Z,99495.28
2023-11-24T17:20:40.636Z,99502.88
2023-11-24T17:23:16.780Z,99506.69
2023-11-24T17:25:46.505Z,99491.56
2023-11-24T17:28:14.918Z,99492.22
2023-11-24T17:30:43.222Z,99495.94
2023-11-24T17:33:11.651Z,99504.09
2023-11-24T17:35:40.021Z,99498.59
2023-11-24T17:38:12.802Z,99497.69
2023-11-24T17:40:42.516Z,99424.66
2023-11-24T17:43:11.199Z,99495.69
2023-11-24T17:45:40.425Z,99495.81
2023-11-24T17:48:09.880Z,99499.56
2023-11-24T17:50:38.549Z,99477.84
2023-11-24T17:53:07.887Z,99479.72
2023-11-24T17:55:37.487Z,99472.28
2023-11-24T17:58:05.784Z,99485.72
2023-11-24T18:00:34.121Z,99485.25
2023-11-24T18:03:02.607Z,99475.81
2023-11-24T18:05:31.241Z,99481.94
2023-11-24T18:08:03.539Z,99484.59
2023-11-24T18:10:31.952Z,99496.69
2023-11-24T18:13:01.773Z,99481.94
2023-11-24T18:15:30.145Z,99478.84
2023-11-24T18:17:58.543Z,99461.81
2023-11-24T18:20:26.859Z,99474.91
2023-11-24T18:22:55.116Z,99480.56
2023-11-24T18:25:23.520Z,99480.56
2023-11-24T18:27:52.244Z,99477.25
2023-11-24T18:30:23.269Z,99473.56
2023-11-24T18:32:51.692Z,99485.50
2023-11-24T18:35:22.508Z,99483.47
2023-11-24T18:37:52.316Z,99401.97
2023-11-24T18:40:26.676Z,99467.38
2023-11-24T18:42:55.024Z,99477.09
2023-11-24T18:45:24.841Z,99443.59
2023-11-24T18:47:53.323Z,99469.28
2023-11-24T18:50:21.757Z,99464.19
2023-11-24T18:52:50.010Z,99479.72
2023-11-24T18:55:18.916Z,99444.03
2023-11-24T18:57:49.100Z,99479.34
2023-11-24T19:00:20.036Z,99485.09
2023-11-24T19:02:50.918Z,99472.09
2023-11-24T19:05:20.159Z,99494.53
2023-11-24T19:07:48.843Z,99500.50
2023-11-24T19:10:19.628Z,99506.28
2023-11-24T19:12:52.225Z,99499.78
2023-11-24T19:15:21.174Z,99488.88
2023-11-24T19:17:50.910Z,99494.84
2023-11-24T19:20:20.212Z,99504.09
2023-11-24T19:22:48.517Z,99500.25
2023-11-24T19:25:16.933Z,99456.34
2023-11-24T19:27:45.190Z,99512.00
2023-11-24T19:30:14.100Z,99501.28
2023-11-24T19:32:42.398Z,99477.47
2023-11-24T19:35:12.052Z,99487.19
2023-11-24T19:37:40.696Z,99506.59
2023-11-24T19:40:10.803Z,99491.66
2023-11-24T19:42:39.101Z,99496.63
2023-11-24T19:45:10.290Z,99497.81
2023-11-24T19:47:38.568Z,99480.38
2023-11-24T19:50:08.080Z,99497.91
2023-11-24T19:52:38.635Z,99489.75
2023-11-24T19:55:07.686Z,99484.06
2023-11-24T19:57:36.127Z,99459.63
2023-11-24T20:00:09.472Z,99474.34
2023-11-24T20:02:38.173Z,99456.53
2023-11-24T20:05:07.811Z,99468.69
2023-11-24T20:07:37.420Z,99423.53
2023-11-24T20:10:07.937Z,99477.47
2023-11-24T20:12:36.218Z,99471.81
2023-11-24T20:15:04.997Z,99469.97
2023-11-24T20:17:34.147Z,99461.25
2023-11-24T20:20:02.715Z,99466.13
2023-11-24T20:22:31.029Z,99479.13
2023-11-24T20:25:00.751Z,99467.88
2023-11-24T20:27:29.181Z,99482.69
2023-11-24T20:29:58.507Z,99471.34
2023-11-24T20:32:26.848Z,99469.59
2023-11-24T20:34:55.206Z,99461.63
2023-11-24T20:37:23.493Z,99457.31
2023-11-24T20:39:52.589Z,99452.38
2023-11-24T20:42:22.179Z,99463.00
2023-11-24T20:44:50.487Z,99456.31
2023-11-24T20:47:18.726Z,99463.28
2023-11-24T20:49:47.019Z,99465.28
2023-11-24T20:52:15.393Z,99472.00
2023-11-24T20:54:45.110Z,99439.94
2023-11-24T20:57:13.370Z,99454.06
2023-11-24T20:59:43.827Z,99445.69
2023-11-24T21:02:12.267Z,99450.56
2023-11-24T21:04:40.983Z,99456.72
2023-11-24T21:07:09.435Z,99460.53
2023-11-24T21:09:37.865Z,99452.13
2023-11-24T21:12:06.782Z,99434.78
2023-11-24T21:14:35.014Z,99433.59
2023-11-24T21:17:05.560Z,99459.72
2023-11-24T21:19:35.114Z,99466.50
2023-11-24T21:22:03.392Z,99464.69
2023-11-24T21:24:31.761Z,99440.66
2023-11-24T21:27:01.361Z,99444.41
2023-11-24T21:29:30.599Z,99438.13
2023-11-24T21:31:58.912Z,99428.47
2023-11-24T21:34:29.719Z,99431.59
2023-11-24T21:36:58.141Z,99420.59
2023-11-24T21:39:26.517Z,99421.22
2023-11-24T21:41:54.760Z,99423.09
2023-11-24T21:44:24.212Z,99436.63
2023-11-24T21:46:52.544Z,99438.47
2023-11-24T21:49:20.927Z,99434.69
2023-11-24T21:51:50.529Z,99437.34
2023-11-24T21:54:18.794Z,99430.13
2023-11-24T21:56:50.179Z,99430.31
2023-11-24T21:59:18.376Z,99422.06
2023-11-24T22:01:46.682Z,99421.03
2023-11-24T22:04:15.197Z,99424.25
2023-11-24T22:06:43.524Z,99434.97
2023-11-24T22:09:13.208Z,99433.41
2023-11-24T22:11:41.511Z,99432.63
2023-11-24T22:14:09.831Z,99424.25
2023-11-24T22:16:38.227Z,99429.38
2023-11-24T22:19:07.237Z,99416.88
2023-11-24T22:21:35.657Z,99416.47
2023-11-24T22:24:07.554Z,99410.44
2023-11-24T22:26:39.185Z,99420.97
2023-11-24T22:29:11.953Z,99424.66
2023-11-24T22:31:40.997Z,99415.38
2023-11-24T22:34:10.275Z,99416.28
2023-11-24T22:36:38.691Z,99355.75
2023-11-24T22:39:08.451Z,99406.78
2023-11-24T22:41:39.378Z,99412.72
2023-11-24T22:44:09.938Z,99425.00
2023-11-24T22:46:38.275Z,99419.41
2023-11-24T22:49:06.691Z,99407.69
2023-11-24T22:51:35.113Z,99409.69
2023-11-24T22:54:04.190Z,99424.34
2023-11-24T22:56:33.202Z,99420.69
2023-11-24T22:59:02.895Z,99428.84
2023-11-24T23:01:31.493Z,99420.97
2023-11-24T23:04:02.064Z,99418.94
2023-11-24T23:06:30.468Z,99420.97
2023-11-24T23:08:59.556Z,99419.78
2023-11-24T23:11:30.064Z,99414.75
2023-11-24T23:13:58.972Z,99415.91
2023-11-24T23:16:30.362Z,99400.53
2023-11-24T23:18:59.440Z,99416.09
2023-11-24T23:21:27.797Z,99431.78
2023-11-24T23:23:56.524Z,99438.72
2023-11-24T23:26:26.246Z,99439.09
2023-11-24T23:28:54.798Z,99444.94
2023-11-24T23:31:26.824Z,99442.03
2023-11-24T23:33:58.123Z,99442.59
2023-11-24T23:36:26.352Z,99452.66
2023-11-24T23:38:54.623Z,99461.63
2023-11-24T23:41:23.455Z,99454.31
2023-11-24T23:43:51.816Z,99464.03
2023-11-24T23:46:20.307Z,99475.91
2023-11-24T23:48:48.806Z,99471.63
2023-11-24T23:51:18.931Z,99465.56
2023-11-24T23:53:47.318Z,99465.94
2023-11-24T23:56:15.667Z,99469.13
2023-11-24T23:58:45.009Z,99473.06
